sensor_id;sensor_type;location;lat;lon;timestamp;temperature;humidity
68813;DHT22;55808;48.112;11.552;2023-03-30T00:01:46;9.30;99.90
68813;DHT22;55808;48.112;11.552;2023-03-30T00:04:12;9.40;99.90
68813;DHT22;55808;48.112;11.552;2023-03-30T00:06:37;9.30;99.90
68813;DHT22;55808;48.112;11.552;2023-03-30T00:09:03;9.40;99.90
68813;DHT22;55808;48.112;11.552;2023-03-30T00:11:30;9.40;99.90
68813;DHT22;55808;48.112;11.552;2023-03-30T00:13:58;9.40;99.90
68813;DHT22;55808;48.112;11.552;2023-03-30T00:16:24;9.40;99.90
68813;DHT22;55808;48.112;11.552;2023-03-30T00:18:50;9.40;99.90
68813;DHT22;55808;48.112;11.552;2023-03-30T00:21:15;9.50;99.90
68813;DHT22;55808;48.112;11.552;2023-03-30T00:23:44;9.50;99.90
68813;DHT22;55808;48.112;11.552;2023-03-30T00:26:12;9.40;99.90
68813;DHT22;55808;48.112;11.552;2023-03-30T00:28:37;9.50;99.90
68813;DHT22;55808;48.112;11.552;2023-03-30T00:31:03;9.40;99.90
68813;DHT22;55808;48.112;11.552;2023-03-30T00:33:28;9.50;99.90
68813;DHT22;55808;48.112;11.552;2023-03-30T00:35:55;9.50;99.90
68813;DHT22;55808;48.112;11.552;2023-03-30T00:38:21;9.50;99.90
68813;DHT22;55808;48.112;11.552;2023-03-30T00:40:54;9.50;99.90
68813;DHT22;55808;48.112;11.552;2023-03-30T00:43:19;9.50;99.90
68813;DHT22;55808;48.112;11.552;2023-03-30T00:45:45;9.40;99.90
68813;DHT22;55808;48.112;11.552;2023-03-30T00:48:27;9.40;99.90
68813;DHT22;55808;48.112;11.552;2023-03-30T00:53:23;9.40;99.90
68813;DHT22;55808;48.112;11.552;2023-03-30T00:55:50;9.30;99.90
68813;DHT22;55808;48.112;11.552;2023-03-30T00:58:16;9.40;99.90
68813;DHT22;55808;48.112;11.552;2023-03-30T01:00:42;9.40;99.90
68813;DHT22;55808;48.112;11.552;2023-03-30T01:03:30;9.40;99.90
68813;DHT22;55808;48.112;11.552;2023-03-30T01:05:57;9.40;99.90
68813;DHT22;55808;48.112;11.552;2023-03-30T01:08:24;9.40;99.90
68813;DHT22;55808;48.112;11.552;2023-03-30T01:10:52;9.50;99.90
68813;DHT22;55808;48.112;11.552;2023-03-30T01:13:18;9.50;99.90
68813;DHT22;55808;48.112;11.552;2023-03-30T01:15:49;9.50;99.90
68813;DHT22;55808;48.112;11.552;2023-03-30T01:18:24;9.50;99.90
68813;DHT22;55808;48.112;11.552;2023-03-30T01:20:55;9.50;99.90
68813;DHT22;55808;48.112;11.552;2023-03-30T01:28:42;9.60;99.90
68813;DHT22;55808;48.112;11.552;2023-03-30T01:39:28;9.90;99.90
68813;DHT22;55808;48.112;11.552;2023-03-30T01:47:10;10.10;99.90
68813;DHT22;55808;48.112;11.552;2023-03-30T01:49:59;10.10;99.90
68813;DHT22;55808;48.112;11.552;2023-03-30T01:52:35;10.20;99.90
68813;DHT22;55808;48.112;11.552;2023-03-30T01:57:36;10.10;99.90
68813;DHT22;55808;48.112;11.552;2023-03-30T02:00:13;10.30;99.90
68813;DHT22;55808;48.112;11.552;2023-03-30T02:02:40;10.30;99.90
68813;DHT22;55808;48.112;11.552;2023-03-30T02:05:07;10.30;99.90
68813;DHT22;55808;48.112;11.552;2023-03-30T02:07:34;10.30;99.90
68813;DHT22;55808;48.112;11.552;2023-03-30T02:10:02;10.30;99.90
68813;DHT22;55808;48.112;11.552;2023-03-30T02:12:29;10.30;99.90
68813;DHT22;55808;48.112;11.552;2023-03-30T02:15:00;10.40;99.90
68813;DHT22;55808;48.112;11.552;2023-03-30T02:17:27;10.60;99.90
68813;DHT22;55808;48.112;11.552;2023-03-30T02:19:52;10.70;99.90
68813;DHT22;55808;48.112;11.552;2023-03-30T02:22:21;10.70;99.90
68813;DHT22;55808;48.112;11.552;2023-03-30T02:24:48;10.80;99.90
68813;DHT22;55808;48.112;11.552;2023-03-30T02:27:14;10.80;99.90
68813;DHT22;55808;48.112;11.552;2023-03-30T02:29:41;10.90;99.90
68813;DHT22;55808;48.112;11.552;2023-03-30T02:32:13;10.90;99.90
68813;DHT22;55808;48.112;11.552;2023-03-30T02:45:16;10.90;99.90
68813;DHT22;55808;48.112;11.552;2023-03-30T02:53:09;10.60;99.90
68813;DHT22;55808;48.112;11.552;2023-03-30T02:55:53;10.70;99.90
68813;DHT22;55808;48.112;11.552;2023-03-30T02:58:48;10.60;99.90
68813;DHT22;55808;48.112;11.552;2023-03-30T03:01:38;10.50;99.90
68813;DHT22;55808;48.112;11.552;2023-03-30T03:04:02;10.40;99.90
68813;DHT22;55808;48.112;11.552;2023-03-30T03:06:29;10.50;99.90
68813;DHT22;55808;48.112;11.552;2023-03-30T03:08:56;10.50;99.90
68813;DHT22;55808;48.112;11.552;2023-03-30T03:11:23;10.70;99.90
68813;DHT22;55808;48.112;11.552;2023-03-30T03:13:49;10.70;99.90
68813;DHT22;55808;48.112;11.552;2023-03-30T03:16:14;10.70;99.90
68813;DHT22;55808;48.112;11.552;2023-03-30T03:18:40;10.90;99.90
68813;DHT22;55808;48.112;11.552;2023-03-30T03:21:06;11.10;99.90
68813;DHT22;55808;48.112;11.552;2023-03-30T03:23:33;11.00;99.90
68813;DHT22;55808;48.112;11.552;2023-03-30T03:25:58;10.80;99.90
68813;DHT22;55808;48.112;11.552;2023-03-30T03:28:24;10.60;99.90
68813;DHT22;55808;48.112;11.552;2023-03-30T03:30:50;10.40;99.90
68813;DHT22;55808;48.112;11.552;2023-03-30T03:33:16;10.40;99.90
68813;DHT22;55808;48.112;11.552;2023-03-30T03:35:41;10.40;99.90
68813;DHT22;55808;48.112;11.552;2023-03-30T03:38:10;10.40;99.90
68813;DHT22;55808;48.112;11.552;2023-03-30T03:40:35;10.30;99.90
68813;DHT22;55808;48.112;11.552;2023-03-30T03:43:01;10.20;99.90
68813;DHT22;55808;48.112;11.552;2023-03-30T03:45:26;10.20;99.90
68813;DHT22;55808;48.112;11.552;2023-03-30T03:47:52;10.10;99.90
68813;DHT22;55808;48.112;11.552;2023-03-30T03:50:17;10.10;99.90
68813;DHT22;55808;48.112;11.552;2023-03-30T03:52:43;10.10;99.90
68813;DHT22;55808;48.112;11.552;2023-03-30T03:55:09;10.10;99.90
68813;DHT22;55808;48.112;11.552;2023-03-30T03:57:34;10.20;99.90
68813;DHT22;55808;48.112;11.552;2023-03-30T04:00:01;10.20;99.90
68813;DHT22;55808;48.112;11.552;2023-03-30T04:02:27;10.10;99.90
68813;DHT22;55808;48.112;11.552;2023-03-30T04:04:53;10.00;99.90
68813;DHT22;55808;48.112;11.552;2023-03-30T04:07:18;10.00;99.90
68813;DHT22;55808;48.112;11.552;2023-03-30T04:09:44;9.90;99.90
68813;DHT22;55808;48.112;11.552;2023-03-30T04:12:10;9.90;99.90
68813;DHT22;55808;48.112;11.552;2023-03-30T04:14:35;10.00;99.90
68813;DHT22;55808;48.112;11.552;2023-03-30T04:17:01;9.90;99.90
68813;DHT22;55808;48.112;11.552;2023-03-30T04:19:26;9.90;99.90
68813;DHT22;55808;48.112;11.552;2023-03-30T04:21:55;9.90;99.90
68813;DHT22;55808;48.112;11.552;2023-03-30T04:24:23;9.90;99.90
68813;DHT22;55808;48.112;11.552;2023-03-30T04:26:50;9.90;99.90
68813;DHT22;55808;48.112;11.552;2023-03-30T04:29:15;9.90;99.90
68813;DHT22;55808;48.112;11.552;2023-03-30T04:31:42;9.90;99.90
68813;DHT22;55808;48.112;11.552;2023-03-30T04:34:11;9.90;99.90
68813;DHT22;55808;48.112;11.552;2023-03-30T04:36:37;9.90;99.90
68813;DHT22;55808;48.112;11.552;2023-03-30T04:39:02;9.90;99.90
68813;DHT22;55808;48.112;11.552;2023-03-30T04:41:31;9.90;99.90
68813;DHT22;55808;48.112;11.552;2023-03-30T04:44:03;9.90;99.90
68813;DHT22;55808;48.112;11.552;2023-03-30T04:46:29;9.90;99.90
68813;DHT22;55808;48.112;11.552;2023-03-30T04:48:55;9.90;99.90
68813;DHT22;55808;48.112;11.552;2023-03-30T04:51:21;9.90;99.90
68813;DHT22;55808;48.112;11.552;2023-03-30T04:53:46;9.90;99.90
68813;DHT22;55808;48.112;11.552;2023-03-30T04:56:12;9.90;99.90
68813;DHT22;55808;48.112;11.552;2023-03-30T04:58:38;9.90;99.90
68813;DHT22;55808;48.112;11.552;2023-03-30T05:01:03;9.90;99.90
68813;DHT22;55808;48.112;11.552;2023-03-30T05:03:29;9.90;99.90
68813;DHT22;55808;48.112;11.552;2023-03-30T05:05:55;9.90;99.90
68813;DHT22;55808;48.112;11.552;2023-03-30T05:08:21;10.00;99.90
68813;DHT22;55808;48.112;11.552;2023-03-30T05:10:47;10.00;99.90
68813;DHT22;55808;48.112;11.552;2023-03-30T05:13:12;10.00;99.90
68813;DHT22;55808;48.112;11.552;2023-03-30T05:15:38;9.90;99.90
68813;DHT22;55808;48.112;11.552;2023-03-30T05:18:04;10.00;99.90
68813;DHT22;55808;48.112;11.552;2023-03-30T05:20:30;10.00;99.90
68813;DHT22;55808;48.112;11.552;2023-03-30T05:22:55;9.90;99.90
68813;DHT22;55808;48.112;11.552;2023-03-30T05:25:21;9.90;99.90
68813;DHT22;55808;48.112;11.552;2023-03-30T05:27:47;9.90;99.90
68813;DHT22;55808;48.112;11.552;2023-03-30T05:30:12;9.90;99.90
68813;DHT22;55808;48.112;11.552;2023-03-30T05:32:38;9.90;99.90
68813;DHT22;55808;48.112;11.552;2023-03-30T05:35:03;9.90;99.90
68813;DHT22;55808;48.112;11.552;2023-03-30T05:37:29;9.90;99.90
68813;DHT22;55808;48.112;11.552;2023-03-30T05:39:55;9.80;99.90
68813;DHT22;55808;48.112;11.552;2023-03-30T05:42:21;9.80;99.90
68813;DHT22;55808;48.112;11.552;2023-03-30T05:44:46;9.80;99.90
68813;DHT22;55808;48.112;11.552;2023-03-30T05:47:12;9.80;99.90
68813;DHT22;55808;48.112;11.552;2023-03-30T05:49:37;9.80;99.90
68813;DHT22;55808;48.112;11.552;2023-03-30T05:52:03;9.80;99.90
68813;DHT22;55808;48.112;11.552;2023-03-30T05:54:29;9.80;99.90
68813;DHT22;55808;48.112;11.552;2023-03-30T05:56:54;9.90;99.90
68813;DHT22;55808;48.112;11.552;2023-03-30T05:59:20;9.90;99.90
68813;DHT22;55808;48.112;11.552;2023-03-30T06:01:46;9.90;99.90
68813;DHT22;55808;48.112;11.552;2023-03-30T06:04:12;9.90;99.90
68813;DHT22;55808;48.112;11.552;2023-03-30T06:06:37;9.90;99.90
68813;DHT22;55808;48.112;11.552;2023-03-30T06:09:03;9.90;99.90
68813;DHT22;55808;48.112;11.552;2023-03-30T06:11:29;9.90;99.90
68813;DHT22;55808;48.112;11.552;2023-03-30T06:13:56;10.00;99.90
68813;DHT22;55808;48.112;11.552;2023-03-30T06:16:22;10.00;99.90
68813;DHT22;55808;48.112;11.552;2023-03-30T06:18:47;10.00;99.90
68813;DHT22;55808;48.112;11.552;2023-03-30T06:21:13;10.10;99.90
68813;DHT22;55808;48.112;11.552;2023-03-30T06:23:38;10.10;99.90
68813;DHT22;55808;48.112;11.552;2023-03-30T06:26:05;10.10;99.90
68813;DHT22;55808;48.112;11.552;2023-03-30T06:28:31;10.10;99.90
68813;DHT22;55808;48.112;11.552;2023-03-30T06:30:57;10.10;99.90
68813;DHT22;55808;48.112;11.552;2023-03-30T06:33:25;10.10;99.90
68813;DHT22;55808;48.112;11.552;2023-03-30T06:35:51;10.10;99.90
68813;DHT22;55808;48.112;11.552;2023-03-30T06:38:19;10.10;99.90
68813;DHT22;55808;48.112;11.552;2023-03-30T06:40:45;10.10;99.90
68813;DHT22;55808;48.112;11.552;2023-03-30T06:43:18;10.10;99.90
68813;DHT22;55808;48.112;11.552;2023-03-30T06:45:54;10.10;99.90
68813;DHT22;55808;48.112;11.552;2023-03-30T06:48:20;10.10;99.90
68813;DHT22;55808;48.112;11.552;2023-03-30T06:50:49;10.20;99.90
68813;DHT22;55808;48.112;11.552;2023-03-30T06:53:15;10.10;99.90
68813;DHT22;55808;48.112;11.552;2023-03-30T06:55:41;10.20;99.90
68813;DHT22;55808;48.112;11.552;2023-03-30T06:58:07;10.10;99.90
68813;DHT22;55808;48.112;11.552;2023-03-30T07:00:32;10.20;99.90
68813;DHT22;55808;48.112;11.552;2023-03-30T07:02:58;10.20;99.90
68813;DHT22;55808;48.112;11.552;2023-03-30T07:05:23;10.20;99.90
68813;DHT22;55808;48.112;11.552;2023-03-30T07:07:49;10.30;99.90
68813;DHT22;55808;48.112;11.552;2023-03-30T07:10:16;10.20;99.90
68813;DHT22;55808;48.112;11.552;2023-03-30T07:12:41;10.30;99.90
68813;DHT22;55808;48.112;11.552;2023-03-30T07:15:08;10.40;99.90
68813;DHT22;55808;48.112;11.552;2023-03-30T07:17:34;10.40;99.90
68813;DHT22;55808;48.112;11.552;2023-03-30T07:19:59;10.40;99.90
68813;DHT22;55808;48.112;11.552;2023-03-30T07:22:26;10.50;99.90
68813;DHT22;55808;48.112;11.552;2023-03-30T07:24:51;10.50;99.90
68813;DHT22;55808;48.112;11.552;2023-03-30T07:27:17;10.60;99.90
68813;DHT22;55808;48.112;11.552;2023-03-30T07:29:42;10.60;99.90
68813;DHT22;55808;48.112;11.552;2023-03-30T07:32:08;10.60;99.90
68813;DHT22;55808;48.112;11.552;2023-03-30T07:34:33;10.70;99.90
68813;DHT22;55808;48.112;11.552;2023-03-30T07:36:59;10.70;99.90
68813;DHT22;55808;48.112;11.552;2023-03-30T07:39:26;10.70;99.90
68813;DHT22;55808;48.112;11.552;2023-03-30T07:41:51;10.70;99.90
68813;DHT22;55808;48.112;11.552;2023-03-30T07:44:17;10.60;99.90
68813;DHT22;55808;48.112;11.552;2023-03-30T07:46:42;10.60;99.90
68813;DHT22;55808;48.112;11.552;2023-03-30T07:49:08;10.60;99.90
68813;DHT22;55808;48.112;11.552;2023-03-30T07:51:33;10.70;99.90
68813;DHT22;55808;48.112;11.552;2023-03-30T07:53:59;10.70;99.90
68813;DHT22;55808;48.112;11.552;2023-03-30T07:56:25;10.70;99.90
68813;DHT22;55808;48.112;11.552;2023-03-30T07:58:51;10.70;99.90
68813;DHT22;55808;48.112;11.552;2023-03-30T08:01:16;10.70;99.90
68813;DHT22;55808;48.112;11.552;2023-03-30T08:03:42;10.70;99.90
68813;DHT22;55808;48.112;11.552;2023-03-30T08:06:09;10.80;99.90
68813;DHT22;55808;48.112;11.552;2023-03-30T08:08:35;10.90;99.90
68813;DHT22;55808;48.112;11.552;2023-03-30T08:11:03;10.90;99.90
68813;DHT22;55808;48.112;11.552;2023-03-30T08:13:29;10.90;99.90
68813;DHT22;55808;48.112;11.552;2023-03-30T08:15:55;10.90;99.90
68813;DHT22;55808;48.112;11.552;2023-03-30T08:18:21;11.00;99.90
68813;DHT22;55808;48.112;11.552;2023-03-30T08:20:49;11.00;99.90
68813;DHT22;55808;48.112;11.552;2023-03-30T08:23:15;11.10;99.90
68813;DHT22;55808;48.112;11.552;2023-03-30T08:25:40;11.10;99.90
68813;DHT22;55808;48.112;11.552;2023-03-30T08:28:06;11.20;99.90
68813;DHT22;55808;48.112;11.552;2023-03-30T08:30:33;11.30;99.90
68813;DHT22;55808;48.112;11.552;2023-03-30T08:32:58;11.40;99.90
68813;DHT22;55808;48.112;11.552;2023-03-30T08:35:24;11.40;99.90
68813;DHT22;55808;48.112;11.552;2023-03-30T08:37:49;11.50;99.90
68813;DHT22;55808;48.112;11.552;2023-03-30T08:40:15;11.60;99.90
68813;DHT22;55808;48.112;11.552;2023-03-30T08:45:26;11.50;99.90
68813;DHT22;55808;48.112;11.552;2023-03-30T08:47:58;11.50;99.90
68813;DHT22;55808;48.112;11.552;2023-03-30T08:50:31;11.50;99.90
68813;DHT22;55808;48.112;11.552;2023-03-30T08:52:57;11.50;99.90
68813;DHT22;55808;48.112;11.552;2023-03-30T08:55:26;11.60;99.90
68813;DHT22;55808;48.112;11.552;2023-03-30T09:06:06;11.80;99.90
68813;DHT22;55808;48.112;11.552;2023-03-30T09:08:35;11.90;99.90
68813;DHT22;55808;48.112;11.552;2023-03-30T09:11:03;12.10;99.90
68813;DHT22;55808;48.112;11.552;2023-03-30T09:13:31;12.20;99.90
68813;DHT22;55808;48.112;11.552;2023-03-30T09:18:30;12.20;99.90
68813;DHT22;55808;48.112;11.552;2023-03-30T09:20:57;12.20;99.90
68813;DHT22;55808;48.112;11.552;2023-03-30T09:23:25;12.20;99.90
68813;DHT22;55808;48.112;11.552;2023-03-30T09:31:32;12.30;99.90
68813;DHT22;55808;48.112;11.552;2023-03-30T09:39:19;12.30;99.90
68813;DHT22;55808;48.112;11.552;2023-03-30T09:41:58;12.50;99.90
68813;DHT22;55808;48.112;11.552;2023-03-30T09:44:29;12.40;99.90
68813;DHT22;55808;48.112;11.552;2023-03-30T09:46:58;12.30;99.90
68813;DHT22;55808;48.112;11.552;2023-03-30T09:49:25;12.50;99.90
68813;DHT22;55808;48.112;11.552;2023-03-30T09:52:02;12.60;99.90
68813;DHT22;55808;48.112;11.552;2023-03-30T09:54:37;12.60;99.90
68813;DHT22;55808;48.112;11.552;2023-03-30T09:57:04;12.60;99.90
68813;DHT22;55808;48.112;11.552;2023-03-30T09:59:31;12.60;99.90
68813;DHT22;55808;48.112;11.552;2023-03-30T10:07:39;12.60;99.90
68813;DHT22;55808;48.112;11.552;2023-03-30T10:13:00;12.80;99.90
68813;DHT22;55808;48.112;11.552;2023-03-30T10:15:28;12.90;99.90
68813;DHT22;55808;48.112;11.552;2023-03-30T10:18:01;13.10;99.90
68813;DHT22;55808;48.112;11.552;2023-03-30T10:20:29;13.10;99.90
68813;DHT22;55808;48.112;11.552;2023-03-30T10:23:20;13.30;99.90
68813;DHT22;55808;48.112;11.552;2023-03-30T10:25:49;13.30;99.90
68813;DHT22;55808;48.112;11.552;2023-03-30T10:30:48;13.80;99.90
68813;DHT22;55808;48.112;11.552;2023-03-30T10:33:14;13.70;99.90
68813;DHT22;55808;48.112;11.552;2023-03-30T10:35:40;13.80;99.90
68813;DHT22;55808;48.112;11.552;2023-03-30T10:38:06;13.60;99.90
68813;DHT22;55808;48.112;11.552;2023-03-30T10:40:33;13.60;99.90
68813;DHT22;55808;48.112;11.552;2023-03-30T10:43:00;13.50;99.90
68813;DHT22;55808;48.112;11.552;2023-03-30T10:45:28;13.60;99.90
68813;DHT22;55808;48.112;11.552;2023-03-30T10:52:49;13.40;99.90
68813;DHT22;55808;48.112;11.552;2023-03-30T11:03:05;13.20;99.90
68813;DHT22;55808;48.112;11.552;2023-03-30T11:05:33;13.10;99.90
68813;DHT22;55808;48.112;11.552;2023-03-30T11:08:10;13.30;99.90
68813;DHT22;55808;48.112;11.552;2023-03-30T11:10:37;13.20;99.90
68813;DHT22;55808;48.112;11.552;2023-03-30T11:13:09;13.10;99.90
68813;DHT22;55808;48.112;11.552;2023-03-30T11:18:12;12.90;99.90
68813;DHT22;55808;48.112;11.552;2023-03-30T11:20:46;12.90;99.90
68813;DHT22;55808;48.112;11.552;2023-03-30T11:23:15;13.00;99.90
68813;DHT22;55808;48.112;11.552;2023-03-30T11:25:49;12.80;99.90
68813;DHT22;55808;48.112;11.552;2023-03-30T11:28:21;12.70;99.90
68813;DHT22;55808;48.112;11.552;2023-03-30T11:30:47;12.50;99.90
68813;DHT22;55808;48.112;11.552;2023-03-30T11:33:19;12.40;99.90
68813;DHT22;55808;48.112;11.552;2023-03-30T11:35:47;12.20;99.90
68813;DHT22;55808;48.112;11.552;2023-03-30T11:38:25;12.10;99.90
68813;DHT22;55808;48.112;11.552;2023-03-30T11:41:05;11.80;99.90
68813;DHT22;55808;48.112;11.552;2023-03-30T11:43:34;11.70;99.90
68813;DHT22;55808;48.112;11.552;2023-03-30T11:51:35;11.50;99.90
68813;DHT22;55808;48.112;11.552;2023-03-30T11:56:45;11.20;99.90
68813;DHT22;55808;48.112;11.552;2023-03-30T11:59:28;11.00;99.90
68813;DHT22;55808;48.112;11.552;2023-03-30T12:02:02;10.90;99.90
68813;DHT22;55808;48.112;11.552;2023-03-30T12:04:32;10.60;99.90
68813;DHT22;55808;48.112;11.552;2023-03-30T12:07:02;10.50;99.90
68813;DHT22;55808;48.112;11.552;2023-03-30T12:09:43;10.40;99.90
68813;DHT22;55808;48.112;11.552;2023-03-30T12:12:21;10.20;99.90
68813;DHT22;55808;48.112;11.552;2023-03-30T12:15:03;10.00;99.90
68813;DHT22;55808;48.112;11.552;2023-03-30T12:20:08;9.90;99.90
68813;DHT22;55808;48.112;11.552;2023-03-30T12:22:46;9.80;99.90
68813;DHT22;55808;48.112;11.552;2023-03-30T12:25:21;9.80;99.90
68813;DHT22;55808;48.112;11.552;2023-03-30T12:30:24;9.70;99.90
68813;DHT22;55808;48.112;11.552;2023-03-30T12:33:01;9.70;99.90
68813;DHT22;55808;48.112;11.552;2023-03-30T12:38:16;9.70;99.90
68813;DHT22;55808;48.112;11.552;2023-03-30T12:40:43;9.70;99.90
68813;DHT22;55808;48.112;11.552;2023-03-30T12:45:47;9.70;99.90
68813;DHT22;55808;48.112;11.552;2023-03-30T12:59:07;9.70;99.90
68813;DHT22;55808;48.112;11.552;2023-03-30T13:03:52;9.60;99.90
68813;DHT22;55808;48.112;11.552;2023-03-30T13:29:54;9.70;99.90
68813;DHT22;55808;48.112;11.552;2023-03-30T13:38:02;9.70;99.90
68813;DHT22;55808;48.112;11.552;2023-03-30T13:40:27;9.70;99.90
68813;DHT22;55808;48.112;11.552;2023-03-30T13:45:49;9.70;99.90
68813;DHT22;55808;48.112;11.552;2023-03-30T13:50:51;9.80;99.90
68813;DHT22;55808;48.112;11.552;2023-03-30T13:53:18;9.80;99.90
68813;DHT22;55808;48.112;11.552;2023-03-30T13:55:45;9.80;99.90
68813;DHT22;55808;48.112;11.552;2023-03-30T14:00:47;9.80;99.90
68813;DHT22;55808;48.112;11.552;2023-03-30T14:03:33;9.80;99.90
68813;DHT22;55808;48.112;11.552;2023-03-30T14:06:01;9.80;99.90
68813;DHT22;55808;48.112;11.552;2023-03-30T14:08:28;9.90;99.90
68813;DHT22;55808;48.112;11.552;2023-03-30T14:10:55;9.90;99.90
68813;DHT22;55808;48.112;11.552;2023-03-30T14:13:22;9.80;99.90
68813;DHT22;55808;48.112;11.552;2023-03-30T14:15:48;9.80;99.90
68813;DHT22;55808;48.112;11.552;2023-03-30T14:18:19;9.80;99.90
68813;DHT22;55808;48.112;11.552;2023-03-30T14:20:49;9.90;99.90
68813;DHT22;55808;48.112;11.552;2023-03-30T14:26:02;9.90;99.90
68813;DHT22;55808;48.112;11.552;2023-03-30T14:28:29;9.90;99.90
68813;DHT22;55808;48.112;11.552;2023-03-30T14:30:58;9.90;99.90
68813;DHT22;55808;48.112;11.552;2023-03-30T14:33:29;9.90;99.90
68813;DHT22;55808;48.112;11.552;2023-03-30T14:35:55;10.00;99.90
68813;DHT22;55808;48.112;11.552;2023-03-30T14:38:22;10.00;99.90
68813;DHT22;55808;48.112;11.552;2023-03-30T14:40:49;10.00;99.90
68813;DHT22;55808;48.112;11.552;2023-03-30T14:43:17;10.00;99.90
68813;DHT22;55808;48.112;11.552;2023-03-30T14:45:43;10.00;99.90
68813;DHT22;55808;48.112;11.552;2023-03-30T14:48:20;10.10;99.90
68813;DHT22;55808;48.112;11.552;2023-03-30T14:50:47;10.10;99.90
68813;DHT22;55808;48.112;11.552;2023-03-30T14:53:12;10.20;99.90
68813;DHT22;55808;48.112;11.552;2023-03-30T14:55:38;10.20;99.90
68813;DHT22;55808;48.112;11.552;2023-03-30T14:58:04;10.20;99.90
68813;DHT22;55808;48.112;11.552;2023-03-30T15:00:30;10.30;99.90
68813;DHT22;55808;48.112;11.552;2023-03-30T15:02:56;10.40;99.90
68813;DHT22;55808;48.112;11.552;2023-03-30T15:05:24;10.50;99.90
68813;DHT22;55808;48.112;11.552;2023-03-30T15:07:51;10.40;99.90
68813;DHT22;55808;48.112;11.552;2023-03-30T15:10:36;10.30;99.90
68813;DHT22;55808;48.112;11.552;2023-03-30T15:13:02;10.30;99.90
68813;DHT22;55808;48.112;11.552;2023-03-30T15:15:29;10.20;99.90
68813;DHT22;55808;48.112;11.552;2023-03-30T15:17:56;10.20;99.90
68813;DHT22;55808;48.112;11.552;2023-03-30T15:20:22;10.20;99.90
68813;DHT22;55808;48.112;11.552;2023-03-30T15:22:49;10.20;99.90
68813;DHT22;55808;48.112;11.552;2023-03-30T15:25:19;10.10;99.90
68813;DHT22;55808;48.112;11.552;2023-03-30T15:27:53;10.00;99.90
68813;DHT22;55808;48.112;11.552;2023-03-30T15:32:52;9.90;99.90
68813;DHT22;55808;48.112;11.552;2023-03-30T15:35:22;9.90;99.90
68813;DHT22;55808;48.112;11.552;2023-03-30T15:37:55;10.00;99.90
68813;DHT22;55808;48.112;11.552;2023-03-30T15:40:31;10.00;99.90
68813;DHT22;55808;48.112;11.552;2023-03-30T15:43:15;10.00;99.90
68813;DHT22;55808;48.112;11.552;2023-03-30T15:45:44;10.00;99.90
68813;DHT22;55808;48.112;11.552;2023-03-30T15:48:11;9.90;99.90
68813;DHT22;55808;48.112;11.552;2023-03-30T15:50:37;10.00;99.90
68813;DHT22;55808;48.112;11.552;2023-03-30T15:53:04;10.00;99.90
68813;DHT22;55808;48.112;11.552;2023-03-30T15:55:33;10.00;99.90
68813;DHT22;55808;48.112;11.552;2023-03-30T15:57:58;10.00;99.90
68813;DHT22;55808;48.112;11.552;2023-03-30T16:00:26;9.90;99.90
68813;DHT22;55808;48.112;11.552;2023-03-30T16:02:55;9.90;99.90
68813;DHT22;55808;48.112;11.552;2023-03-30T16:05:23;9.90;99.90
68813;DHT22;55808;48.112;11.552;2023-03-30T16:07:49;10.00;99.90
68813;DHT22;55808;48.112;11.552;2023-03-30T16:10:19;10.10;99.90
68813;DHT22;55808;48.112;11.552;2023-03-30T16:12:45;10.00;99.90
68813;DHT22;55808;48.112;11.552;2023-03-30T16:15:15;10.20;99.90
68813;DHT22;55808;48.112;11.552;2023-03-30T16:17:41;10.60;99.90
68813;DHT22;55808;48.112;11.552;2023-03-30T16:20:23;10.60;99.90
68813;DHT22;55808;48.112;11.552;2023-03-30T16:22:52;10.90;99.90
68813;DHT22;55808;48.112;11.552;2023-03-30T16:25:19;10.90;99.90
68813;DHT22;55808;48.112;11.552;2023-03-30T16:27:45;10.90;99.90
68813;DHT22;55808;48.112;11.552;2023-03-30T16:30:12;10.60;99.90
68813;DHT22;55808;48.112;11.552;2023-03-30T16:32:39;10.70;99.90
68813;DHT22;55808;48.112;11.552;2023-03-30T16:35:04;10.60;99.90
68813;DHT22;55808;48.112;11.552;2023-03-30T16:37:30;10.60;99.90
68813;DHT22;55808;48.112;11.552;2023-03-30T16:39:55;10.50;99.90
68813;DHT22;55808;48.112;11.552;2023-03-30T16:42:21;10.50;99.90
68813;DHT22;55808;48.112;11.552;2023-03-30T16:44:46;10.30;99.90
68813;DHT22;55808;48.112;11.552;2023-03-30T16:47:12;10.20;99.90
68813;DHT22;55808;48.112;11.552;2023-03-30T16:49:37;10.30;99.90
68813;DHT22;55808;48.112;11.552;2023-03-30T16:52:03;10.10;99.90
68813;DHT22;55808;48.112;11.552;2023-03-30T16:54:30;10.00;99.90
68813;DHT22;55808;48.112;11.552;2023-03-30T16:56:55;9.90;99.90
68813;DHT22;55808;48.112;11.552;2023-03-30T16:59:25;9.90;99.90
68813;DHT22;55808;48.112;11.552;2023-03-30T17:01:51;9.80;99.90
68813;DHT22;55808;48.112;11.552;2023-03-30T17:04:16;9.80;99.90
68813;DHT22;55808;48.112;11.552;2023-03-30T17:06:42;9.80;99.90
68813;DHT22;55808;48.112;11.552;2023-03-30T17:09:09;9.80;99.90
68813;DHT22;55808;48.112;11.552;2023-03-30T17:11:36;9.80;99.90
68813;DHT22;55808;48.112;11.552;2023-03-30T17:14:01;9.80;99.90
68813;DHT22;55808;48.112;11.552;2023-03-30T17:16:27;9.80;99.90
68813;DHT22;55808;48.112;11.552;2023-03-30T17:18:55;9.70;99.90
68813;DHT22;55808;48.112;11.552;2023-03-30T17:21:20;9.80;99.90
68813;DHT22;55808;48.112;11.552;2023-03-30T17:23:47;9.80;99.90
68813;DHT22;55808;48.112;11.552;2023-03-30T17:26:14;9.70;99.90
68813;DHT22;55808;48.112;11.552;2023-03-30T17:28:39;9.80;99.90
68813;DHT22;55808;48.112;11.552;2023-03-30T17:31:06;9.80;99.90
68813;DHT22;55808;48.112;11.552;2023-03-30T17:33:31;9.80;99.90
68813;DHT22;55808;48.112;11.552;2023-03-30T17:36:02;9.90;99.90
68813;DHT22;55808;48.112;11.552;2023-03-30T17:38:28;9.90;99.90
68813;DHT22;55808;48.112;11.552;2023-03-30T17:40:54;9.90;99.90
68813;DHT22;55808;48.112;11.552;2023-03-30T17:43:20;10.00;99.90
68813;DHT22;55808;48.112;11.552;2023-03-30T17:45:46;10.10;99.90
68813;DHT22;55808;48.112;11.552;2023-03-30T17:48:12;10.10;99.90
68813;DHT22;55808;48.112;11.552;2023-03-30T17:50:39;10.10;99.90
68813;DHT22;55808;48.112;11.552;2023-03-30T17:53:11;10.00;99.90
68813;DHT22;55808;48.112;11.552;2023-03-30T17:55:37;9.90;99.90
68813;DHT22;55808;48.112;11.552;2023-03-30T18:00:48;9.90;99.90
68813;DHT22;55808;48.112;11.552;2023-03-30T18:03:14;9.80;99.90
68813;DHT22;55808;48.112;11.552;2023-03-30T18:05:40;9.80;99.90
68813;DHT22;55808;48.112;11.552;2023-03-30T18:08:06;9.80;99.90
68813;DHT22;55808;48.112;11.552;2023-03-30T18:10:36;9.80;99.90
68813;DHT22;55808;48.112;11.552;2023-03-30T18:13:02;9.80;99.90
68813;DHT22;55808;48.112;11.552;2023-03-30T18:15:28;9.80;99.90